Diana, Texas
Current Conditions -  °F | °C
As of 4:53 AM on Sunday 23 Nov 2014 (Local Time) from KGGG Reporting Station
Light Rain Light Rain  
Wind Chill: 62°   Ceiling: 10000
Heat Index: 62°   Visibility: 10mi
Dew Point: 59°   Wind: 10mph
Humidity: 90%   Direction: 120°ESE
Pressure: 29.57"   Gusts: NA
Location:  32.71°N, 94.75°W
Report Text: KGGG 231053Z AUTO 12009KT 10SM -RA OVC100 17/15 A2957 RMK AO2 RAB12 SLP010 P0002 T01670150
Loading
Personal Weather Stations






























Interactive Weather Map New forecast layout! Learn more

10-Day Weather Forecast

Advertisements
Track Severe Weather on mobile